createdAt,value
2022-12-27T00:02:04.654Z,101176.66
2022-12-27T00:04:30.940Z,101177.34
2022-12-27T00:07:21.783Z,101190.53
2022-12-27T00:09:48.083Z,101183.13
2022-12-27T00:12:32.841Z,101196.44
2022-12-27T00:15:51.843Z,101194.91
2022-12-27T00:18:30.202Z,101206.53
2022-12-27T00:21:00.547Z,101211.16
2022-12-27T00:23:48.708Z,101208.72
2022-12-27T00:26:35.405Z,101196.44
2022-12-27T00:32:41.842Z,101173.53
2022-12-27T00:35:23.285Z,101184.31
2022-12-27T00:37:49.575Z,101195.19
2022-12-27T00:40:15.881Z,101203.63
2022-12-27T00:42:42.139Z,101194.94
2022-12-27T00:45:08.773Z,101200.16
2022-12-27T00:47:35.106Z,101190.44
2022-12-27T00:50:01.478Z,101205.09
2022-12-27T00:52:27.739Z,101206.78
2022-12-27T00:54:54.019Z,101204.94
2022-12-27T00:57:20.368Z,101212.69
2022-12-27T00:59:47.187Z,101224.19
2022-12-27T01:02:13.591Z,101220.09
2022-12-27T01:04:39.867Z,101213.28
2022-12-27T01:07:06.239Z,101216.16
2022-12-27T01:09:32.536Z,101211.19
2022-12-27T01:11:58.790Z,101220.09
2022-12-27T01:14:25.076Z,101222.88
2022-12-27T01:16:51.441Z,101223.91
2022-12-27T01:19:18.249Z,101211.88
2022-12-27T01:21:44.802Z,101234.50
2022-12-27T01:24:11.078Z,101245.13
2022-12-27T01:26:37.417Z,101239.22
2022-12-27T01:29:03.835Z,101240.91
2022-12-27T01:31:30.290Z,101243.53
2022-12-27T01:33:57.354Z,101247.84
2022-12-27T01:36:25.292Z,101248.75
2022-12-27T01:38:51.886Z,101246.13
2022-12-27T01:41:39.873Z,101263.47
2022-12-27T01:44:24.954Z,101261.59
2022-12-27T01:46:51.339Z,101250.91
2022-12-27T01:49:18.061Z,101251.97
2022-12-27T01:51:44.402Z,101228.84
2022-12-27T01:54:10.777Z,101235.38
2022-12-27T01:56:37.137Z,101236.00
2022-12-27T01:59:06.370Z,101242.75
2022-12-27T02:01:36.139Z,101261.59
2022-12-27T02:04:05.997Z,101274.19
2022-12-27T02:06:32.936Z,101266.03
2022-12-27T02:09:11.060Z,101269.19
2022-12-27T02:11:53.590Z,101266.44
2022-12-27T02:14:35.308Z,101266.38
2022-12-27T02:17:03.712Z,101265.56
2022-12-27T02:19:29.977Z,101267.34
2022-12-27T02:22:06.916Z,101277.75
2022-12-27T02:24:41.098Z,101269.06
2022-12-27T02:27:20.036Z,101276.78
2022-12-27T02:29:55.494Z,101278.44
2022-12-27T02:32:27.918Z,101277.63
2022-12-27T02:34:54.149Z,101268.28
2022-12-27T02:37:21.678Z,101274.53
2022-12-27T02:39:49.825Z,101275.63
2022-12-27T02:42:36.025Z,101273.88
2022-12-27T02:45:22.306Z,101263.38
2022-12-27T02:48:07.725Z,101276.03
2022-12-27T02:51:03.162Z,101269.88
2022-12-27T02:53:52.466Z,101270.81
2022-12-27T02:56:40.448Z,101281.31
2022-12-27T02:59:12.503Z,101284.81
2022-12-27T03:02:16.796Z,101281.53
2022-12-27T03:04:57.274Z,101294.88
2022-12-27T03:07:32.684Z,101284.66
2022-12-27T03:10:20.926Z,101285.69
2022-12-27T03:13:08.882Z,101279.78
2022-12-27T03:15:53.758Z,101280.78
2022-12-27T03:18:23.185Z,101268.72
2022-12-27T03:21:08.322Z,101279.28
2022-12-27T03:23:54.532Z,101278.59
2022-12-27T03:26:21.852Z,101279.41
2022-12-27T03:29:08.136Z,101281.28
2022-12-27T03:31:55.633Z,101280.50
2022-12-27T03:34:35.845Z,101275.34
2022-12-27T03:37:27.135Z,101273.63
2022-12-27T03:39:59.310Z,101268.41
2022-12-27T03:42:46.395Z,101257.09
2022-12-27T03:45:12.855Z,101260.53
2022-12-27T03:47:47.245Z,101260.44
2022-12-27T03:50:16.436Z,101257.69
2022-12-27T03:52:56.556Z,101258.38
2022-12-27T03:55:23.854Z,101263.53
2022-12-27T03:57:53.085Z,101265.38
2022-12-27T04:00:19.561Z,101258.56
2022-12-27T04:02:46.063Z,101270.78
2022-12-27T04:05:12.462Z,101270.00
2022-12-27T04:07:38.748Z,101286.66
2022-12-27T04:10:24.165Z,101288.50
2022-12-27T04:13:09.053Z,101302.50
2022-12-27T04:15:54.082Z,101307.81
2022-12-27T04:18:38.832Z,101314.94
2022-12-27T04:21:23.781Z,101300.06
2022-12-27T04:24:08.579Z,101512.44
2022-12-27T04:26:53.427Z,101508.44
2022-12-27T04:29:38.214Z,101520.47
2022-12-27T04:32:22.983Z,101473.31
2022-12-27T04:34:49.280Z,101473.38
2022-12-27T04:37:17.210Z,101469.88
2022-12-27T04:40:03.144Z,101471.66
2022-12-27T04:42:47.967Z,101477.69
2022-12-27T04:45:32.753Z,101494.38
2022-12-27T04:48:17.506Z,101481.19
2022-12-27T04:51:02.407Z,101476.75
2022-12-27T04:53:48.212Z,101466.09
2022-12-27T04:56:14.492Z,101462.63
2022-12-27T04:59:00.752Z,101458.28
2022-12-27T05:01:45.993Z,101463.56
2022-12-27T05:04:12.446Z,101456.69
2022-12-27T05:06:38.710Z,101465.50
2022-12-27T05:09:23.699Z,101461.22
2022-12-27T05:12:08.584Z,101462.34
2022-12-27T05:14:34.872Z,101484.16
2022-12-27T05:17:01.197Z,101495.63
2022-12-27T05:19:28.590Z,101500.16
2022-12-27T05:22:13.460Z,101499.25
2022-12-27T05:24:58.119Z,101497.09
2022-12-27T05:27:24.377Z,101507.69
2022-12-27T05:29:50.757Z,101513.66
2022-12-27T05:32:17.022Z,101509.22
2022-12-27T05:34:43.352Z,101508.38
2022-12-27T05:37:09.679Z,101509.06
2022-12-27T05:39:35.930Z,101513.22
2022-12-27T05:42:03.111Z,101507.19
2022-12-27T05:44:29.374Z,101488.63
2022-12-27T05:46:55.743Z,101502.97
2022-12-27T05:49:22.187Z,101496.44
2022-12-27T05:51:48.475Z,101502.97
2022-12-27T05:54:14.744Z,101507.88
2022-12-27T05:56:41.731Z,101506.03
2022-12-27T05:59:08.104Z,101515.47
2022-12-27T06:01:36.146Z,101524.97
2022-12-27T06:04:02.584Z,101515.28
2022-12-27T06:06:28.894Z,101517.91
2022-12-27T06:08:55.233Z,101516.88
2022-12-27T06:11:21.522Z,101517.44
2022-12-27T06:13:52.004Z,101520.72
2022-12-27T06:16:19.653Z,101519.59
2022-12-27T06:18:46.071Z,101515.44
2022-12-27T06:21:14.023Z,101512.09
2022-12-27T06:23:41.729Z,101518.13
2022-12-27T06:26:18.630Z,101522.44
2022-12-27T06:28:45.007Z,101541.63
2022-12-27T06:31:11.714Z,101537.31
2022-12-27T06:33:38.055Z,101535.66
2022-12-27T06:36:08.424Z,101539.25
2022-12-27T06:38:34.815Z,101529.72
2022-12-27T06:41:01.866Z,101544.38
2022-12-27T06:43:28.141Z,101547.81
2022-12-27T06:45:58.147Z,101551.34
2022-12-27T06:48:24.563Z,101544.53
2022-12-27T06:50:50.879Z,101554.22
2022-12-27T06:53:17.172Z,101560.94
2022-12-27T06:55:43.501Z,101569.56
2022-12-27T06:58:09.858Z,101570.47
2022-12-27T07:00:36.249Z,101569.56
2022-12-27T07:03:03.746Z,101586.19
2022-12-27T07:05:30.186Z,101579.25
2022-12-27T07:07:56.502Z,101583.69
2022-12-27T07:10:23.103Z,101579.97
2022-12-27T07:12:49.418Z,101589.44
2022-12-27T07:15:15.793Z,101586.75
2022-12-27T07:17:42.046Z,101595.50
2022-12-27T07:20:08.638Z,101610.09
2022-12-27T07:22:34.973Z,101607.41
2022-12-27T07:25:01.240Z,101614.16
2022-12-27T07:27:27.517Z,101619.41
2022-12-27T07:29:53.799Z,101633.41
2022-12-27T07:32:20.082Z,101636.00
2022-12-27T07:34:46.403Z,101642.91
2022-12-27T07:37:12.758Z,101650.00
2022-12-27T07:39:39.047Z,101659.81
2022-12-27T07:42:08.364Z,101658.34
2022-12-27T07:44:35.123Z,101671.53
2022-12-27T07:47:01.464Z,101667.31
2022-12-27T07:49:28.225Z,101673.00
2022-12-27T07:51:54.502Z,101681.09
2022-12-27T07:54:20.797Z,101685.50
2022-12-27T07:56:47.074Z,101681.84
2022-12-27T07:59:13.874Z,101693.00
2022-12-27T08:01:58.747Z,101699.94
2022-12-27T08:04:25.162Z,101693.72
2022-12-27T08:06:51.528Z,101698.13
2022-12-27T08:09:23.604Z,101699.97
2022-12-27T08:11:49.932Z,101689.56
2022-12-27T08:14:16.195Z,101695.94
2022-12-27T08:16:42.471Z,101700.47
2022-12-27T08:19:08.879Z,101702.25
2022-12-27T08:21:35.189Z,101710.25
2022-12-27T08:24:01.438Z,101716.41
2022-12-27T08:26:27.724Z,101719.25
2022-12-27T08:28:53.980Z,101727.06
2022-12-27T08:31:20.296Z,101732.38
2022-12-27T08:33:46.727Z,101729.97
2022-12-27T08:36:45.048Z,101734.53
2022-12-27T08:38:59.372Z,101735.50
2022-12-27T08:41:25.732Z,101738.16
2022-12-27T08:43:52.263Z,101751.28
2022-12-27T08:46:19.505Z,101747.78
2022-12-27T08:48:49.382Z,101746.88
2022-12-27T08:51:24.834Z,101749.50
2022-12-27T08:53:57.925Z,101761.84
2022-12-27T08:56:24.655Z,101761.28
2022-12-27T08:58:50.959Z,101782.84
2022-12-27T09:01:17.434Z,101797.63
2022-12-27T09:03:43.802Z,101819.97
2022-12-27T09:06:11.148Z,101820.22
2022-12-27T09:08:37.805Z,101836.59
2022-12-27T09:11:08.371Z,101813.78
2022-12-27T09:13:34.717Z,101816.25
2022-12-27T09:16:05.133Z,101810.94
2022-12-27T09:18:31.484Z,101809.00
2022-12-27T09:21:02.614Z,101812.25
2022-12-27T09:23:29.698Z,101818.97
2022-12-27T09:25:55.957Z,101817.09
2022-12-27T09:28:22.223Z,101812.63
2022-12-27T09:30:48.577Z,101825.50
2022-12-27T09:33:15.014Z,101824.91
2022-12-27T09:35:41.276Z,101820.09
2022-12-27T09:38:07.661Z,101834.41
2022-12-27T09:40:34.097Z,101834.91
2022-12-27T09:43:20.673Z,101841.69
2022-12-27T09:45:51.617Z,101837.16
2022-12-27T09:48:31.103Z,101843.66
2022-12-27T09:51:00.831Z,101853.50
2022-12-27T09:53:47.423Z,101859.81
2022-12-27T09:56:18.955Z,101860.41
2022-12-27T09:58:49.386Z,101869.72
2022-12-27T10:01:27.649Z,101858.97
2022-12-27T10:03:54.308Z,101844.53
2022-12-27T10:06:20.563Z,101834.53
2022-12-27T10:08:53.295Z,101844.63
2022-12-27T10:11:36.842Z,101845.38
2022-12-27T10:14:23.380Z,101841.88
2022-12-27T10:16:52.790Z,101836.75
2022-12-27T10:19:24.518Z,101844.78
2022-12-27T10:22:13.890Z,101853.59
2022-12-27T10:24:44.071Z,101846.66
2022-12-27T10:27:15.265Z,101858.94
2022-12-27T10:29:42.798Z,101867.09
2022-12-27T10:32:11.345Z,101863.75
2022-12-27T10:34:37.653Z,101862.91
2022-12-27T10:37:03.945Z,101872.59
2022-12-27T10:39:32.097Z,101876.28
2022-12-27T10:42:07.902Z,101889.63
2022-12-27T10:44:34.324Z,101876.56
2022-12-27T10:47:00.970Z,101886.34
2022-12-27T10:49:28.995Z,101888.13
2022-12-27T10:52:06.636Z,101884.81
2022-12-27T10:54:33.050Z,101907.75
2022-12-27T10:57:18.259Z,101899.09
2022-12-27T10:59:44.619Z,101906.19
2022-12-27T11:02:20.067Z,101897.53
2022-12-27T11:04:59.553Z,101912.47
2022-12-27T11:07:33.513Z,101914.47
2022-12-27T11:10:07.580Z,101922.50
2022-12-27T11:12:36.078Z,101933.72
2022-12-27T11:15:15.725Z,101935.06
2022-12-27T11:17:42.082Z,101941.31
2022-12-27T11:20:12.428Z,101953.84
2022-12-27T11:23:00.407Z,101969.22
2022-12-27T11:25:27.785Z,101970.88
2022-12-27T11:28:00.694Z,101969.38
2022-12-27T11:30:30.543Z,101970.63
2022-12-27T11:32:59.432Z,101960.94
2022-12-27T11:35:25.840Z,101974.75
2022-12-27T11:37:52.440Z,101963.19
2022-12-27T11:40:22.303Z,101981.75
2022-12-27T11:42:51.137Z,101986.91
2022-12-27T11:45:22.950Z,101990.41
2022-12-27T11:48:08.059Z,101984.66
2022-12-27T11:50:42.882Z,101992.19
2022-12-27T11:53:09.143Z,101994.63
2022-12-27T11:55:52.766Z,101989.84
2022-12-27T11:58:34.310Z,101991.81
2022-12-27T12:01:12.907Z,101994.03
2022-12-27T12:03:45.090Z,102001.78
2022-12-27T12:06:22.306Z,102003.91
2022-12-27T12:08:57.383Z,102009.03
2022-12-27T12:11:34.067Z,102005.38
2022-12-27T12:14:09.116Z,101999.25
2022-12-27T12:16:43.691Z,101994.78
2022-12-27T12:19:21.674Z,101995.09
2022-12-27T12:21:48.532Z,101993.03
2022-12-27T12:24:33.796Z,101988.72
2022-12-27T12:27:03.043Z,101983.81
2022-12-27T12:29:32.307Z,101988.44
2022-12-27T12:32:05.206Z,101983.38
2022-12-27T12:34:59.282Z,101985.47
2022-12-27T12:37:44.191Z,101994.59
2022-12-27T12:40:21.025Z,101989.81
2022-12-27T12:43:01.517Z,101992.78
2022-12-27T12:45:43.702Z,101989.44
2022-12-27T12:48:15.743Z,101995.47
2022-12-27T12:50:45.226Z,101992.13
2022-12-27T12:53:20.417Z,101992.19
2022-12-27T12:55:46.708Z,101982.59
2022-12-27T12:58:24.285Z,101984.38
2022-12-27T13:01:03.852Z,101986.09
2022-12-27T13:03:32.968Z,101991.25
2022-12-27T13:06:18.203Z,101990.03
2022-12-27T13:08:53.567Z,101998.69
2022-12-27T13:11:58.592Z,102007.53
2022-12-27T13:14:27.805Z,102004.69
2022-12-27T13:17:12.768Z,102005.53
2022-12-27T13:19:51.058Z,101994.06
2022-12-27T13:22:31.888Z,101983.91
2022-12-27T13:24:58.118Z,101987.81
2022-12-27T13:27:32.307Z,101983.78
2022-12-27T13:30:07.368Z,101980.72
2022-12-27T13:32:48.689Z,101980.13
2022-12-27T13:35:28.176Z,101974.38
2022-12-27T13:38:17.726Z,101965.94
2022-12-27T13:41:04.762Z,101982.09
2022-12-27T13:43:54.286Z,101986.56
2022-12-27T13:46:42.482Z,101982.25
2022-12-27T13:49:26.937Z,101985.53
2022-12-27T13:51:57.100Z,101984.47
2022-12-27T13:54:42.000Z,101980.97
2022-12-27T13:57:21.700Z,101980.88
2022-12-27T13:59:52.868Z,101966.78
2022-12-27T14:02:37.473Z,101972.97
2022-12-27T14:05:30.387Z,101961.72
2022-12-27T14:08:10.316Z,101958.06
2022-12-27T14:10:40.474Z,101950.06
2022-12-27T14:13:07.988Z,101958.81
2022-12-27T14:15:58.803Z,101956.19
2022-12-27T14:18:32.169Z,101959.63
2022-12-27T14:21:05.874Z,101962.16
2022-12-27T14:23:32.117Z,101950.72
2022-12-27T14:26:01.509Z,101952.56
2022-12-27T14:28:33.840Z,101960.47
2022-12-27T14:31:03.134Z,101964.84
2022-12-27T14:33:55.333Z,101967.75
2022-12-27T14:36:27.782Z,101970.44
2022-12-27T14:39:06.488Z,101971.56
2022-12-27T14:41:51.619Z,101952.50
2022-12-27T14:44:17.908Z,101945.56
2022-12-27T14:47:03.159Z,101949.56
2022-12-27T14:49:32.444Z,101949.19
2022-12-27T14:52:14.085Z,101948.88
2022-12-27T14:55:08.375Z,101957.34
2022-12-27T14:57:47.331Z,101953.72
2022-12-27T15:00:15.472Z,101951.00
2022-12-27T15:02:53.915Z,101954.38
2022-12-27T15:05:39.153Z,101970.81
2022-12-27T15:08:20.582Z,101973.06
2022-12-27T15:10:57.597Z,101968.97
2022-12-27T15:13:56.356Z,101968.28
2022-12-27T15:16:22.633Z,101975.25
2022-12-27T15:18:57.279Z,101964.88
2022-12-27T15:21:33.651Z,101963.81
2022-12-27T15:24:05.775Z,101961.03
2022-12-27T15:26:52.494Z,101950.47
2022-12-27T15:29:31.077Z,101955.44
2022-12-27T15:32:03.471Z,101964.97
2022-12-27T15:34:51.326Z,101965.81
2022-12-27T15:37:36.347Z,101963.94
2022-12-27T15:40:21.185Z,101962.16
2022-12-27T15:43:01.744Z,101962.91
2022-12-27T15:48:51.565Z,101964.22
2022-12-27T15:51:41.630Z,101962.34
2022-12-27T15:54:19.688Z,101963.22
2022-12-27T15:57:03.007Z,101943.03
2022-12-27T15:59:35.361Z,101957.81
2022-12-27T16:02:17.018Z,101953.47
2022-12-27T16:04:48.384Z,101951.47
2022-12-27T16:07:34.486Z,101945.16
2022-12-27T16:10:20.749Z,101939.66
2022-12-27T16:12:48.368Z,101942.09
2022-12-27T16:15:32.745Z,101940.22
2022-12-27T16:17:59.107Z,101930.19
2022-12-27T16:20:25.444Z,101932.59
2022-12-27T16:22:51.689Z,101930.53
2022-12-27T16:25:30.163Z,101930.38
2022-12-27T16:27:59.644Z,101929.41
2022-12-27T16:30:38.131Z,101935.34
2022-12-27T16:33:05.016Z,101933.47
2022-12-27T16:35:32.384Z,101928.09
2022-12-27T16:38:03.663Z,101937.63
2022-12-27T16:40:38.036Z,101947.97
2022-12-27T16:43:10.393Z,101944.63
2022-12-27T16:45:39.708Z,101958.81
2022-12-27T16:48:25.246Z,101967.78
2022-12-27T16:51:04.878Z,101968.91
2022-12-27T16:53:40.132Z,101971.13
2022-12-27T16:56:06.584Z,101968.56
2022-12-27T16:58:34.590Z,101958.00
2022-12-27T17:01:02.852Z,101946.41
2022-12-27T17:03:31.635Z,101937.38
2022-12-27T17:06:30.659Z,101938.03
2022-12-27T17:08:46.153Z,101939.59
2022-12-27T17:11:25.774Z,101941.13
2022-12-27T17:14:11.159Z,101935.75
2022-12-27T17:16:41.917Z,101936.41
2022-12-27T17:19:15.614Z,101933.72
2022-12-27T17:21:44.463Z,101934.53
2022-12-27T17:24:15.148Z,101932.66
2022-12-27T17:26:56.528Z,101919.38
2022-12-27T17:29:41.547Z,101928.84
2022-12-27T17:32:16.923Z,101937.59
2022-12-27T17:35:02.158Z,101945.50
2022-12-27T17:37:46.790Z,101938.53
2022-12-27T17:40:31.230Z,101942.00
2022-12-27T17:43:22.205Z,101945.69
2022-12-27T17:45:55.918Z,101951.03
2022-12-27T17:48:25.382Z,101936.31
2022-12-27T17:50:54.592Z,101939.97
2022-12-27T17:53:41.046Z,101938.34
2022-12-27T17:56:29.102Z,101950.81
2022-12-27T17:59:06.844Z,101952.03
2022-12-27T18:04:07.835Z,101976.38
2022-12-27T18:06:35.876Z,101966.28
2022-12-27T18:09:02.502Z,101961.25
2022-12-27T18:11:31.957Z,101957.00
2022-12-27T18:14:00.409Z,101960.59
2022-12-27T18:16:38.356Z,101955.44
2022-12-27T18:19:04.966Z,101930.00
2022-12-27T18:21:32.023Z,101910.50
2022-12-27T18:23:58.443Z,101894.44
2022-12-27T18:26:35.644Z,101888.09
2022-12-27T18:29:02.010Z,101908.13
2022-12-27T18:31:28.454Z,101924.91
2022-12-27T18:33:57.722Z,101924.19
2022-12-27T18:36:27.145Z,101906.59
2022-12-27T18:38:57.293Z,101893.41
2022-12-27T18:41:24.024Z,101896.00
2022-12-27T18:43:53.823Z,101902.09
2022-12-27T18:46:25.362Z,101904.00
2022-12-27T18:48:52.752Z,101901.53
2022-12-27T18:51:19.209Z,101903.38
2022-12-27T18:53:45.763Z,101909.75
2022-12-27T18:56:15.623Z,101907.28
2022-12-27T18:59:03.930Z,101910.16
2022-12-27T19:01:36.811Z,101901.50
2022-12-27T19:04:17.038Z,101875.22
2022-12-27T19:06:55.650Z,101857.63
2022-12-27T19:09:23.774Z,101870.78
2022-12-27T19:11:58.741Z,101886.69
2022-12-27T19:14:26.103Z,101885.03
2022-12-27T19:16:59.278Z,101886.97
2022-12-27T19:19:27.773Z,101891.53
2022-12-27T19:21:54.312Z,101888.16
2022-12-27T19:24:23.607Z,101885.66
2022-12-27T19:26:50.771Z,101888.50
2022-12-27T19:29:18.275Z,101867.56
2022-12-27T19:32:03.420Z,101857.94
2022-12-27T19:34:31.404Z,101854.50
2022-12-27T19:36:57.879Z,101841.47
2022-12-27T19:39:29.007Z,101843.50
2022-12-27T19:42:00.431Z,101839.19
2022-12-27T19:44:27.582Z,101835.91
2022-12-27T19:46:53.869Z,101822.03
2022-12-27T19:52:09.531Z,101811.75
2022-12-27T19:54:35.834Z,101809.25
2022-12-27T19:57:02.128Z,101806.00
2022-12-27T19:59:28.398Z,101794.72
2022-12-27T20:01:54.977Z,101790.63
2022-12-27T20:04:21.407Z,101771.63
2022-12-27T20:06:48.698Z,101766.56
2022-12-27T20:09:16.749Z,101739.63
2022-12-27T20:11:43.090Z,101764.91
2022-12-27T20:14:09.603Z,101658.81
2022-12-27T20:16:35.927Z,101647.53
2022-12-27T20:19:02.794Z,101642.31
2022-12-27T20:21:29.279Z,101624.03
2022-12-27T20:23:55.579Z,101625.00
2022-12-27T20:26:24.016Z,101626.81
2022-12-27T20:28:51.316Z,101630.34
2022-12-27T20:31:19.313Z,101637.56
2022-12-27T20:33:45.933Z,101636.06
2022-12-27T20:36:12.315Z,101629.25
2022-12-27T20:38:39.183Z,101631.19
2022-12-27T20:41:09.834Z,101628.75
2022-12-27T20:43:36.414Z,101615.78
2022-12-27T20:46:13.951Z,101611.63
2022-12-27T20:48:40.994Z,101616.91
2022-12-27T20:51:09.067Z,101615.22
2022-12-27T20:53:35.737Z,101612.59
2022-12-27T20:56:02.690Z,101595.13
2022-12-27T20:58:30.000Z,101598.72
2022-12-27T21:00:56.360Z,101589.03
2022-12-27T21:03:22.799Z,101591.44
2022-12-27T21:05:49.234Z,101585.28
2022-12-27T21:08:15.511Z,101576.47
2022-12-27T21:10:41.872Z,101585.97
2022-12-27T21:13:08.216Z,101577.38
2022-12-27T21:15:40.444Z,101570.41
2022-12-27T21:18:08.769Z,101567.88
2022-12-27T21:20:35.047Z,101562.56
2022-12-27T21:23:01.432Z,101557.34
2022-12-27T21:25:27.701Z,101555.59
2022-12-27T21:27:53.956Z,101562.53
2022-12-27T21:30:20.295Z,101560.88
2022-12-27T21:32:47.645Z,101568.69
2022-12-27T21:35:13.997Z,101554.88
2022-12-27T21:37:40.242Z,101556.72
2022-12-27T21:40:06.873Z,101550.69
2022-12-27T21:42:33.185Z,101542.91
2022-12-27T21:44:59.547Z,101533.38
2022-12-27T21:47:26.586Z,101537.75
2022-12-27T21:49:52.866Z,101533.50
2022-12-27T21:52:20.667Z,101528.34
2022-12-27T21:54:47.601Z,101518.84
2022-12-27T21:57:13.923Z,101521.59
2022-12-27T21:59:40.263Z,101522.44
2022-12-27T22:05:00.198Z,101511.38
2022-12-27T22:07:26.499Z,101509.72
2022-12-27T22:09:52.824Z,101497.59
2022-12-27T22:12:19.082Z,101492.50
2022-12-27T22:14:45.442Z,101489.13
2022-12-27T22:17:11.763Z,101479.59
2022-12-27T22:19:38.032Z,101477.03
2022-12-27T22:22:04.397Z,101821.28
2022-12-27T22:24:30.683Z,101828.50
2022-12-27T22:26:57.516Z,101838.28
2022-12-27T22:29:24.673Z,101840.13
2022-12-27T22:31:50.948Z,101848.13
2022-12-27T22:34:17.238Z,101854.31
2022-12-27T22:36:43.526Z,101854.38
2022-12-27T22:39:09.902Z,101850.03
2022-12-27T22:41:36.553Z,101843.16
2022-12-27T22:44:04.710Z,101846.59
2022-12-27T22:46:58.668Z,101848.38
2022-12-27T22:49:18.488Z,101863.31
2022-12-27T22:51:44.805Z,101867.72
2022-12-27T22:54:11.272Z,101866.97
2022-12-27T22:56:41.993Z,101866.88
2022-12-27T22:59:09.178Z,101869.56
2022-12-27T23:01:35.994Z,101860.81
2022-12-27T23:04:03.926Z,101866.97
2022-12-27T23:06:31.223Z,101857.41
2022-12-27T23:08:57.552Z,101854.84
2022-12-27T23:11:28.608Z,101856.56
2022-12-27T23:13:56.185Z,101845.28
2022-12-27T23:16:22.905Z,101851.34
2022-12-27T23:18:49.201Z,101856.72
2022-12-27T23:21:20.709Z,101857.59
2022-12-27T23:23:50.372Z,101856.03
2022-12-27T23:26:17.891Z,101857.88
2022-12-27T23:28:45.026Z,101864.97
2022-12-27T23:31:11.951Z,101857.19
2022-12-27T23:33:38.957Z,101880.75
2022-12-27T23:36:05.397Z,101885.19
2022-12-27T23:38:31.749Z,101895.66
2022-12-27T23:40:59.311Z,101887.88
2022-12-27T23:46:17.015Z,101878.28
2022-12-27T23:48:43.594Z,101866.94
2022-12-27T23:51:10.446Z,101871.34
2022-12-27T23:53:37.101Z,101868.72
2022-12-27T23:56:13.745Z,101859.97
2022-12-27T23:58:40.342Z,101851.19
